Lower Brule, SD (57548)

11:34 AM CDT on September 30, 2014 (GMT -0500)
Chamberlain | Change Station
CLOSE
Current Station
Airport
Location: Chamberlain,
Elevation: 1693 ft
Nearby Weather Stations
Active Advisory: Wind Advisory

Elev 1693 ft 43.77 °N, 99.32 °W | Updated 19 minutes ago

Overcast
Overcast
68 °F
Feels Like 68 °F
N
21
Wind Variable Wind from South
Gusts 30 mph

Today
High -- | Low -- °F
--% Chance of Precip.
Yesterday
High -- | Low -- °F
Precip. -- in
7:35 AM 7:21 PM
Waxing Crescent, 38% visible
Pressure 29.61 in
Visibility 10.0 miles
Clouds Clear
Dew Point 51 °F
Humidity 54%
Rainfall 0.03 in
Snow Depth 1 in
UV 4 out of 12
Pollen .50 out of 12
Air Quality Not available.
Flu Activity Not available.
METAR K9V9 301615Z AUTO 17018G26KT 10SM CLR 20/11 A2961 RMK AO2 T02000105

More Conditions Fewer Conditions

Pressure 29.61 in
Visibility 10.0 miles
Clouds Clear
Dew Point 51 °F
Humidity 54%
Rainfall 0.03 in
Snow Depth 1 in
UV 4 out of 12
Pollen .50 out of 12
Air Quality Not available.
Flu Activity Not available.
METAR K9V9 301615Z AUTO 17018G26KT 10SM CLR 20/11 A2961 RMK AO2 T02000105

More Conditions Fewer Conditions

10-Day Weather Forecast

Almanac

Astronomy

Sep. 30, 2014 Rise Set
Actual Time 7:35 AM CDT 7:21 PM CDT
Civil Twilight 7:06 AM CDT 7:50 PM CDT
Nautical Twilight 6:32 AM CDT 8:23 PM CDT
Astronomical Twilight 5:58 AM CDT 8:57 PM CDT
Moon 1:54 PM CDT 11:43 PM CDT
Length of Visible Light 12h 43m
Length of Day
11h 46m
Tomorrow will be 3m 0s shorter.
Waxing Crescent, 38% of the Moon is Illuminated
Today
Waxing Crescent
Oct 1
First Quarter
Oct 8
Full
Oct 15
Last Quarter
Oct 23
New

Today's Extremes

State Highs State Lows

Community

WunderPhotos

Upload Photos

1,757,679 photos uploaded!

Nearby

Snow Depth

Station Depth Elevation
Blind Park 1 in 6890 ft

Earthquake Activity

City Distance Mag. Time & Date
No recent earthquake activity has been reported nearby.
Minimum magnitude displayed is 2.5.

Coastal Water Temperatures

Place Temperature
No Stations Reporting

Nearby Weather Stations